Time;durP1;ratioP1;P1;durP2;ratioP2;P2;SDS_P1;SDS_P2;PMS_P1;PMS_P2;Temp;Humidity;BMP_temperature;BMP_pressure;BME280_temperature;BME280_humidity;BME280_pressure;Samples;Min_cycle;Max_cycle;Signal;HPM_P1;HPM_P2
2023/05/26 00:03:34;;;;;;;18.10;7.60;;;;;;;;;;10307420;28;20042;-78
2023/05/26 00:08:37;;;;;;;15.35;7.35;;;;;;;;;;10306239;28;20068;-78
2023/05/26 00:13:49;;;;;;;13.85;6.78;;;;;;;;;;10317477;28;20129;-78
2023/05/26 00:18:53;;;;;;;16.27;6.82;;;;;;;;;;10305182;28;20034;-79
2023/05/26 00:23:55;;;;;;;19.10;7.27;;;;;;;;;;10312708;28;20662;-77
2023/05/26 00:28:59;;;;;;;14.45;6.55;;;;;;;;;;10310918;28;20053;-78
2023/05/26 00:34:02;;;;;;;16.52;6.70;;;;;;;;;;10301802;28;20513;-78
2023/05/26 00:39:05;;;;;;;14.60;6.27;;;;;;;;;;10312132;28;20058;-79
2023/05/26 00:44:09;;;;;;;19.50;6.90;;;;;;;;;;10311293;28;20561;-78
2023/05/26 00:49:12;;;;;;;13.38;5.68;;;;;;;;;;10313653;28;20042;-76
2023/05/26 00:54:15;;;;;;;15.18;5.53;;;;;;;;;;10320228;28;20092;-78
2023/05/26 00:59:21;;;;;;;16.88;5.43;;;;;;;;;;10317141;28;20078;-77
2023/05/26 01:04:24;;;;;;;14.57;5.78;;;;;;;;;;10309982;28;20042;-77
2023/05/26 01:09:27;;;;;;;15.20;5.30;;;;;;;;;;10306429;28;20413;-78
2023/05/26 01:14:32;;;;;;;9.27;4.50;;;;;;;;;;10300273;28;20054;-76
2023/05/26 01:19:59;;;;;;;10.95;4.68;;;;;;;;;;10307876;28;20054;-76
2023/05/26 01:25:07;;;;;;;12.40;4.80;;;;;;;;;;10305239;28;20106;-78
2023/05/26 01:30:12;;;;;;;12.70;4.45;;;;;;;;;;10316757;28;20127;-76
2023/05/26 01:35:15;;;;;;;11.35;4.78;;;;;;;;;;10305793;28;20137;-77
2023/05/26 01:40:18;;;;;;;9.77;4.15;;;;;;;;;;10312348;28;20065;-79
2023/05/26 01:45:24;;;;;;;12.95;4.65;;;;;;;;;;10321720;28;20133;-78
2023/05/26 01:50:29;;;;;;;12.00;5.15;;;;;;;;;;10308724;28;20043;-78
2023/05/26 01:55:32;;;;;;;9.38;3.67;;;;;;;;;;10313562;28;20051;-78
2023/05/26 02:00:36;;;;;;;9.55;4.18;;;;;;;;;;10307361;28;20523;-78
2023/05/26 02:05:39;;;;;;;14.10;4.80;;;;;;;;;;10307535;28;20057;-80
2023/05/26 02:10:42;;;;;;;10.35;4.35;;;;;;;;;;10308195;28;20034;-78
2023/05/26 02:15:47;;;;;;;10.10;4.20;;;;;;;;;;10298610;28;20046;-79
2023/05/26 02:20:50;;;;;;;8.95;4.07;;;;;;;;;;10310837;28;20141;-78
2023/05/26 02:25:53;;;;;;;12.73;4.07;;;;;;;;;;10312038;28;20119;-78
2023/05/26 02:30:58;;;;;;;10.35;4.43;;;;;;;;;;10298197;28;20039;-78
2023/05/26 02:36:01;;;;;;;9.95;4.28;;;;;;;;;;10305427;28;20035;-78
2023/05/26 02:41:04;;;;;;;10.05;4.57;;;;;;;;;;10304572;28;20057;-77
2023/05/26 02:46:07;;;;;;;10.57;4.70;;;;;;;;;;10311200;28;20385;-77
2023/05/26 02:51:10;;;;;;;12.38;4.53;;;;;;;;;;10301660;28;20038;-78
2023/05/26 02:56:13;;;;;;;13.82;4.75;;;;;;;;;;10313395;28;20038;-78
2023/05/26 03:01:17;;;;;;;11.02;4.57;;;;;;;;;;10306354;28;20081;-78
2023/05/26 03:06:20;;;;;;;11.13;4.47;;;;;;;;;;10302129;28;20050;-77
2023/05/26 03:11:25;;;;;;;10.88;4.57;;;;;;;;;;10303612;28;20185;-78
2023/05/26 03:16:28;;;;;;;;;;;;;;;;;;10308287;28;20045;-78
2023/05/26 03:21:35;;;;;;;11.95;4.40;;;;;;;;;;10305388;28;20295;-79
2023/05/26 03:26:51;;;;;;;12.35;5.40;;;;;;;;;;10308238;28;20149;-79
2023/05/26 03:31:54;;;;;;;10.27;4.70;;;;;;;;;;10308052;28;20077;-78
2023/05/26 03:36:59;;;;;;;12.88;5.20;;;;;;;;;;10302733;28;20435;-78
2023/05/26 03:42:02;;;;;;;17.42;6.45;;;;;;;;;;10302839;28;20475;-78
2023/05/26 03:47:06;;;;;;;15.18;5.72;;;;;;;;;;10300025;28;20404;-78
2023/05/26 03:52:10;;;;;;;14.23;5.77;;;;;;;;;;10302106;28;20042;-78
2023/05/26 03:57:13;;;;;;;11.82;5.00;;;;;;;;;;10300952;28;20034;-79
2023/05/26 04:02:15;;;;;;;13.60;5.10;;;;;;;;;;10300859;28;20496;-78
2023/05/26 04:07:19;;;;;;;12.15;5.25;;;;;;;;;;10304183;28;20251;-79
2023/05/26 04:12:23;;;;;;;13.68;5.50;;;;;;;;;;10304684;28;20078;-78
2023/05/26 04:17:26;;;;;;;11.23;4.82;;;;;;;;;;10298291;28;20031;-78
2023/05/26 04:22:30;;;;;;;11.82;5.60;;;;;;;;;;10306181;28;20202;-78
2023/05/26 04:27:35;;;;;;;14.75;4.97;;;;;;;;;;10300948;28;20049;-78
2023/05/26 04:32:38;;;;;;;15.48;5.75;;;;;;;;;;10296897;28;20142;-78
2023/05/26 04:37:42;;;;;;;12.10;5.60;;;;;;;;;;10297964;28;20069;-79
2023/05/26 04:42:48;;;;;;;11.88;5.28;;;;;;;;;;10302696;28;20052;-78
2023/05/26 04:47:51;;;;;;;11.65;4.85;;;;;;;;;;10300883;28;20039;-77
2023/05/26 04:52:56;;;;;;;14.03;5.23;;;;;;;;;;10301390;28;20054;-77
2023/05/26 04:57:58;;;;;;;13.90;5.32;;;;;;;;;;10299360;28;20038;-78
2023/05/26 05:03:01;;;;;;;13.50;5.30;;;;;;;;;;10309218;28;20054;-78
2023/05/26 05:08:06;;;;;;;16.13;5.43;;;;;;;;;;10296266;28;20102;-78
2023/05/26 05:13:09;;;;;;;11.65;4.95;;;;;;;;;;10301913;28;20130;-77
2023/05/26 05:18:11;;;;;;;11.30;5.25;;;;;;;;;;10296309;28;20042;-79
2023/05/26 05:23:16;;;;;;;10.48;5.22;;;;;;;;;;10298668;28;20045;-79
2023/05/26 05:28:18;;;;;;;13.23;4.50;;;;;;;;;;10299543;28;20045;-79
2023/05/26 05:33:21;;;;;;;10.65;4.85;;;;;;;;;;10295088;28;20074;-78
2023/05/26 05:38:26;;;;;;;11.32;5.00;;;;;;;;;;10297175;28;20034;-78
2023/05/26 05:43:36;;;;;;;10.93;4.32;;;;;;;;;;10301460;28;20046;-78
2023/05/26 05:48:39;;;;;;;10.77;5.38;;;;;;;;;;10296999;28;20050;-80
2023/05/26 05:53:44;;;;;;;15.82;4.95;;;;;;;;;;10295841;28;20092;-78
2023/05/26 05:58:47;;;;;;;12.63;5.10;;;;;;;;;;10298832;28;20043;-77
2023/05/26 06:03:50;;;;;;;10.48;4.93;;;;;;;;;;10303309;28;20100;-78
2023/05/26 06:08:54;;;;;;;14.52;5.30;;;;;;;;;;10307970;28;20035;-80
2023/05/26 06:13:57;;;;;;;10.18;4.07;;;;;;;;;;10292908;28;20177;-79
2023/05/26 06:19:00;;;;;;;9.05;4.95;;;;;;;;;;10295370;28;20442;-78
2023/05/26 06:24:04;;;;;;;13.30;5.70;;;;;;;;;;10301542;28;20048;-77
2023/05/26 06:29:07;;;;;;;13.52;5.75;;;;;;;;;;10304982;28;20133;-77
2023/05/26 06:34:10;;;;;;;11.57;5.43;;;;;;;;;;10297627;28;20095;-79
2023/05/26 06:39:14;;;;;;;9.77;5.03;;;;;;;;;;10303969;28;20093;-78
2023/05/26 06:44:18;;;;;;;14.57;5.10;;;;;;;;;;10306096;28;20053;-78
2023/05/26 06:49:21;;;;;;;14.50;5.70;;;;;;;;;;10304423;28;20144;-78
2023/05/26 06:54:25;;;;;;;12.67;6.20;;;;;;;;;;10312902;28;20408;-77
2023/05/26 06:59:28;;;;;;;13.23;5.18;;;;;;;;;;10305885;28;20038;-78
2023/05/26 07:04:31;;;;;;;16.60;6.53;;;;;;;;;;10310079;28;20046;-78
2023/05/26 07:09:35;;;;;;;17.95;5.97;;;;;;;;;;10303037;28;20056;-78
2023/05/26 07:14:38;;;;;;;12.40;5.35;;;;;;;;;;10300633;28;20124;-78
2023/05/26 07:19:42;;;;;;;11.70;4.68;;;;;;;;;;10304938;28;20122;-79
2023/05/26 07:24:46;;;;;;;15.05;6.65;;;;;;;;;;10302073;28;20038;-78
2023/05/26 07:29:49;;;;;;;16.33;6.85;;;;;;;;;;10303007;28;20613;-78
2023/05/26 07:34:52;;;;;;;11.98;5.20;;;;;;;;;;10304618;28;20053;-78
2023/05/26 07:39:57;;;;;;;13.38;6.63;;;;;;;;;;10296582;28;20053;-78
2023/05/26 07:44:59;;;;;;;13.98;7.35;;;;;;;;;;10301918;28;20099;-80
2023/05/26 07:50:02;;;;;;;12.88;7.05;;;;;;;;;;10302832;28;20137;-78
2023/05/26 07:55:07;;;;;;;15.48;7.30;;;;;;;;;;10303185;28;20085;-79
2023/05/26 08:00:10;;;;;;;15.18;7.00;;;;;;;;;;10300470;28;20046;-79
2023/05/26 08:05:16;;;;;;;10.80;5.38;;;;;;;;;;10301310;28;20030;-79
2023/05/26 08:10:20;;;;;;;13.40;7.47;;;;;;;;;;10307428;28;20042;-79
2023/05/26 08:15:24;;;;;;;13.85;7.75;;;;;;;;;;10304529;28;20050;-79
2023/05/26 08:20:27;;;;;;;13.00;7.78;;;;;;;;;;10301189;28;20049;-80
2023/05/26 08:25:31;;;;;;;12.52;7.68;;;;;;;;;;10314153;28;20054;-80
2023/05/26 08:30:34;;;;;;;11.88;8.30;;;;;;;;;;10299090;28;20131;-81
2023/05/26 08:35:37;;;;;;;12.82;7.47;;;;;;;;;;10301224;28;20070;-81
2023/05/26 08:40:41;;;;;;;12.38;8.20;;;;;;;;;;10297047;28;20046;-80
2023/05/26 08:45:45;;;;;;;13.93;8.07;;;;;;;;;;10297560;28;20070;-82
2023/05/26 08:50:49;;;;;;;13.45;7.82;;;;;;;;;;10286353;28;20039;-82
2023/05/26 08:55:53;;;;;;;10.98;7.22;;;;;;;;;;10300192;28;20073;-82
2023/05/26 09:00:57;;;;;;;12.63;8.43;;;;;;;;;;10296087;28;20046;-79
2023/05/26 09:06:00;;;;;;;13.43;8.23;;;;;;;;;;10307771;28;20075;-81
2023/05/26 09:11:18;;;;;;;11.80;8.20;;;;;;;;;;10296294;28;20050;-81
2023/05/26 09:16:23;;;;;;;12.00;7.93;;;;;;;;;;10298898;28;20126;-82
2023/05/26 09:21:27;;;;;;;12.25;8.90;;;;;;;;;;10296048;28;20077;-82
2023/05/26 09:26:31;;;;;;;9.63;8.23;;;;;;;;;;10318307;28;20054;-83
2023/05/26 09:31:39;;;;;;;10.60;7.47;;;;;;;;;;10305794;28;20138;-82
2023/05/26 09:36:44;;;;;;;16.17;7.90;;;;;;;;;;10302719;28;20062;-83
2023/05/26 09:41:47;;;;;;;12.18;8.52;;;;;;;;;;10300217;28;20126;-82
2023/05/26 09:46:53;;;;;;;13.15;7.75;;;;;;;;;;10294392;28;20043;-84
2023/05/26 09:51:56;;;;;;;12.32;7.25;;;;;;;;;;10299375;28;20398;-82
2023/05/26 09:57:16;;;;;;;10.65;7.18;;;;;;;;;;10299877;28;20061;-82
2023/05/26 10:02:21;;;;;;;13.10;7.47;;;;;;;;;;10311611;28;20096;-84
2023/05/26 10:07:25;;;;;;;13.30;7.13;;;;;;;;;;10300123;28;21598;-79
2023/05/26 10:12:29;;;;;;;13.25;7.32;;;;;;;;;;10304094;28;20484;-80
2023/05/26 10:17:33;;;;;;;11.32;7.10;;;;;;;;;;10305462;28;20046;-80
2023/05/26 10:22:39;;;;;;;12.88;7.43;;;;;;;;;;10305662;28;20047;-82
2023/05/26 10:27:44;;;;;;;12.50;6.88;;;;;;;;;;10305967;28;20054;-82
2023/05/26 10:32:48;;;;;;;13.38;6.65;;;;;;;;;;10311946;28;20047;-82
2023/05/26 10:37:54;;;;;;;9.57;5.97;;;;;;;;;;10308576;28;20048;-81
2023/05/26 10:43:01;;;;;;;9.73;6.30;;;;;;;;;;10312695;28;20149;-80
2023/05/26 10:48:10;;;;;;;12.00;6.15;;;;;;;;;;10304269;28;20129;-82
2023/05/26 10:53:18;;;;;;;15.32;6.75;;;;;;;;;;10310003;28;20046;-80
2023/05/26 10:58:42;;;;;;;14.20;6.63;;;;;;;;;;10308457;28;20055;-81
2023/05/26 11:03:47;;;;;;;12.68;6.85;;;;;;;;;;10314603;28;20054;-81
2023/05/26 11:08:50;;;;;;;17.65;8.18;;;;;;;;;;10310076;28;20103;-81
2023/05/26 11:13:59;;;;;;;10.95;5.72;;;;;;;;;;10302534;28;20042;-81
2023/05/26 11:19:04;;;;;;;13.45;5.78;;;;;;;;;;10304602;28;20054;-80
2023/05/26 11:24:07;;;;;;;14.07;6.88;;;;;;;;;;10299087;28;20118;-80
2023/05/26 11:29:10;;;;;;;12.98;5.78;;;;;;;;;;10305589;28;20043;-80
2023/05/26 11:34:14;;;;;;;13.07;6.63;;;;;;;;;;10302732;28;20046;-80
2023/05/26 11:39:17;;;;;;;15.77;6.93;;;;;;;;;;10304879;28;20054;-78
2023/05/26 11:44:21;;;;;;;12.50;6.50;;;;;;;;;;10308664;28;20428;-80
2023/05/26 11:49:25;;;;;;;11.07;5.88;;;;;;;;;;10301332;28;20489;-81
2023/05/26 11:54:27;;;;;;;10.55;5.95;;;;;;;;;;10312127;28;20095;-80
2023/05/26 11:59:30;;;;;;;9.52;5.55;;;;;;;;;;10309051;28;20742;-80
2023/05/26 12:04:35;;;;;;;11.80;5.70;;;;;;;;;;10298449;28;20567;-80
2023/05/26 12:09:38;;;;;;;11.70;5.70;;;;;;;;;;10289427;28;20046;-81
2023/05/26 12:14:41;;;;;;;11.57;6.22;;;;;;;;;;10293302;28;20048;-81
2023/05/26 12:19:46;;;;;;;9.75;5.70;;;;;;;;;;10300020;28;20053;-80
2023/05/26 12:24:49;;;;;;;13.60;5.57;;;;;;;;;;10306336;28;20052;-84
2023/05/26 12:29:52;;;;;;;9.95;5.88;;;;;;;;;;10306181;28;20049;-84
2023/05/26 12:34:57;;;;;;;10.20;5.38;;;;;;;;;;10308826;28;20045;-86
2023/05/26 12:40:01;;;;;;;7.05;4.47;;;;;;;;;;10304345;28;20548;-83
2023/05/26 12:45:04;;;;;;;9.80;4.97;;;;;;;;;;10316593;28;20050;-84
2023/05/26 12:50:09;;;;;;;9.18;5.25;;;;;;;;;;10309318;28;20043;-84
2023/05/26 12:55:11;;;;;;;12.65;4.97;;;;;;;;;;10301717;28;20121;-85
2023/05/26 13:00:14;;;;;;;8.73;4.93;;;;;;;;;;10317043;28;20404;-84
2023/05/26 13:05:21;;;;;;;9.63;5.10;;;;;;;;;;10307955;28;20507;-86
2023/05/26 13:10:24;;;;;;;13.27;4.85;;;;;;;;;;10308703;28;20043;-83
2023/05/26 13:15:27;;;;;;;8.15;4.35;;;;;;;;;;10303937;28;20054;-83
2023/05/26 13:20:31;;;;;;;10.00;4.97;;;;;;;;;;10302523;28;20096;-83
2023/05/26 13:25:34;;;;;;;9.63;5.13;;;;;;;;;;10316898;28;20058;-83
2023/05/26 13:30:37;;;;;;;7.97;5.07;;;;;;;;;;10307043;28;20129;-82
2023/05/26 13:35:41;;;;;;;9.77;4.70;;;;;;;;;;10317243;28;20066;-84
2023/05/26 13:40:44;;;;;;;7.85;4.78;;;;;;;;;;10316436;28;20058;-84
2023/05/26 13:45:47;;;;;;;7.47;4.82;;;;;;;;;;10312821;28;20069;-85
2023/05/26 13:50:57;;;;;;;8.52;4.97;;;;;;;;;;10308769;28;20046;-85
2023/05/26 13:56:00;;;;;;;10.73;5.30;;;;;;;;;;10314376;28;20130;-84
2023/05/26 14:01:19;;;;;;;10.68;4.90;;;;;;;;;;10318082;28;20042;-84
2023/05/26 14:06:38;;;;;;;10.75;5.25;;;;;;;;;;10308799;28;20099;-84
2023/05/26 14:11:41;;;;;;;10.65;5.25;;;;;;;;;;10313822;28;20046;-85
2023/05/26 14:16:44;;;;;;;11.25;5.60;;;;;;;;;;10306803;28;20102;-85
2023/05/26 14:21:48;;;;;;;10.38;4.95;;;;;;;;;;10306359;28;20108;-85
2023/05/26 14:27:12;;;;;;;9.60;4.85;;;;;;;;;;10300292;28;20129;-84
2023/05/26 14:32:15;;;;;;;11.23;5.07;;;;;;;;;;10302818;28;20050;-81
2023/05/26 14:37:20;;;;;;;10.88;5.70;;;;;;;;;;10308427;28;20431;-80
2023/05/26 14:42:23;;;;;;;9.07;5.10;;;;;;;;;;10317060;28;20167;-81
2023/05/26 14:47:25;;;;;;;9.63;5.13;;;;;;;;;;10304665;28;20047;-82
2023/05/26 14:52:29;;;;;;;10.80;4.90;;;;;;;;;;10304925;28;20438;-81
2023/05/26 14:57:32;;;;;;;9.88;5.45;;;;;;;;;;10309464;28;20056;-81
2023/05/26 15:02:35;;;;;;;9.75;4.82;;;;;;;;;;10308598;28;20038;-81
2023/05/26 15:07:40;;;;;;;8.65;4.82;;;;;;;;;;10305190;28;20053;-82
2023/05/26 15:12:43;;;;;;;7.45;4.32;;;;;;;;;;10307146;28;20171;-81
2023/05/26 15:17:47;;;;;;;8.82;4.35;;;;;;;;;;10307168;28;20050;-80
2023/05/26 15:22:51;;;;;;;8.73;4.60;;;;;;;;;;10301233;28;20447;-79
2023/05/26 15:27:54;;;;;;;11.75;4.75;;;;;;;;;;10301359;28;20039;-78
2023/05/26 15:32:57;;;;;;;8.77;4.35;;;;;;;;;;10300650;28;20047;-80
2023/05/26 15:38:02;;;;;;;11.75;4.82;;;;;;;;;;10310277;28;20133;-80
2023/05/26 15:43:07;;;;;;;9.48;4.47;;;;;;;;;;10301832;28;20128;-81
2023/05/26 15:48:13;;;;;;;10.00;4.32;;;;;;;;;;10296455;28;20125;-78
2023/05/26 15:53:18;;;;;;;10.13;4.38;;;;;;;;;;10301356;28;20042;-79
2023/05/26 15:58:21;;;;;;;8.90;4.03;;;;;;;;;;10308140;28;20463;-80
2023/05/26 16:03:24;;;;;;;8.57;4.38;;;;;;;;;;10306366;28;20057;-79
2023/05/26 16:08:30;;;;;;;9.50;4.13;;;;;;;;;;10300234;28;20424;-78
2023/05/26 16:13:33;;;;;;;8.63;4.47;;;;;;;;;;10307973;28;20134;-79
2023/05/26 16:18:36;;;;;;;9.45;4.80;;;;;;;;;;10300432;28;20042;-79
2023/05/26 16:23:40;;;;;;;10.27;4.50;;;;;;;;;;10301071;28;20460;-79
2023/05/26 16:28:43;;;;;;;9.80;4.72;;;;;;;;;;10300134;28;20120;-80
2023/05/26 16:33:47;;;;;;;9.35;4.00;;;;;;;;;;10301549;28;20053;-80
2023/05/26 16:38:51;;;;;;;8.43;4.43;;;;;;;;;;10298903;28;20042;-79
2023/05/26 16:43:54;;;;;;;9.23;4.35;;;;;;;;;;10315307;28;20044;-81
2023/05/26 16:48:56;;;;;;;9.68;4.22;;;;;;;;;;10312530;28;20070;-80
2023/05/26 16:54:01;;;;;;;7.85;4.10;;;;;;;;;;10302027;28;20038;-81
2023/05/26 16:59:05;;;;;;;8.40;4.55;;;;;;;;;;10295997;28;20039;-80
2023/05/26 17:04:07;;;;;;;9.77;4.78;;;;;;;;;;10297651;28;20035;-80
2023/05/26 17:09:15;;;;;;;8.43;4.72;;;;;;;;;;10293093;28;20066;-80
2023/05/26 17:14:18;;;;;;;9.55;4.88;;;;;;;;;;10298721;28;20050;-80
2023/05/26 17:19:21;;;;;;;10.10;4.30;;;;;;;;;;10301620;28;20057;-80
2023/05/26 17:24:24;;;;;;;;;;;;;;;;;;10308259;28;20108;-80
2023/05/26 17:29:30;;;;;;;7.60;4.68;;;;;;;;;;10306462;28;20244;-81
2023/05/26 17:34:33;;;;;;;10.57;4.25;;;;;;;;;;10293538;28;20520;-80
2023/05/26 17:39:36;;;;;;;;;;;;;;;;;;10297280;28;20662;-80
2023/05/26 17:44:41;;;;;;;8.63;4.47;;;;;;;;;;10305436;28;19921;-81
2023/05/26 17:49:44;;;;;;;9.10;4.10;;;;;;;;;;10299066;28;20053;-80
2023/05/26 17:54:47;;;;;;;10.77;4.38;;;;;;;;;;10310186;28;21220;-81
2023/05/26 17:59:52;;;;;;;8.70;4.15;;;;;;;;;;10297956;28;20051;-80
2023/05/26 18:04:55;;;;;;;9.00;4.45;;;;;;;;;;10297025;28;20085;-80
2023/05/26 18:09:57;;;;;;;10.80;4.65;;;;;;;;;;10297072;28;20123;-82
2023/05/26 18:15:02;;;;;;;8.25;4.25;;;;;;;;;;10294288;28;20037;-80
2023/05/26 18:20:05;;;;;;;11.15;4.70;;;;;;;;;;10300425;28;20684;-80
2023/05/26 18:25:09;;;;;;;9.13;4.55;;;;;;;;;;10303536;28;20040;-81
2023/05/26 18:30:15;;;;;;;12.50;4.53;;;;;;;;;;10301716;28;20078;-81
2023/05/26 18:35:19;;;;;;;10.75;4.40;;;;;;;;;;10310928;28;20512;-81
2023/05/26 18:40:22;;;;;;;9.25;4.18;;;;;;;;;;10297294;28;20136;-81
2023/05/26 18:45:27;;;;;;;9.75;4.45;;;;;;;;;;10303340;28;20096;-81
2023/05/26 18:50:29;;;;;;;9.35;4.80;;;;;;;;;;10307128;28;20086;-82
2023/05/26 18:55:32;;;;;;;15.63;6.20;;;;;;;;;;10305365;28;20053;-82
2023/05/26 19:00:38;;;;;;;9.45;4.85;;;;;;;;;;10300909;28;20050;-80
2023/05/26 19:05:41;;;;;;;12.32;4.95;;;;;;;;;;10302356;28;20046;-82
2023/05/26 19:10:44;;;;;;;11.80;5.63;;;;;;;;;;10306467;28;20103;-82
2023/05/26 19:15:48;;;;;;;10.13;5.07;;;;;;;;;;10298896;28;20122;-80
2023/05/26 19:20:51;;;;;;;16.10;7.53;;;;;;;;;;10293377;28;20074;-79
2023/05/26 19:25:55;;;;;;;12.40;5.88;;;;;;;;;;10306123;28;20044;-79
2023/05/26 19:30:59;;;;;;;15.10;5.72;;;;;;;;;;10303642;28;20069;-81
2023/05/26 19:36:03;;;;;;;16.10;6.15;;;;;;;;;;10301385;28;20043;-82
2023/05/26 19:41:06;;;;;;;13.00;5.47;;;;;;;;;;10300089;28;20573;-81
2023/05/26 19:46:10;;;;;;;17.90;7.28;;;;;;;;;;10299629;28;20532;-80
2023/05/26 19:51:13;;;;;;;12.32;5.93;;;;;;;;;;10298986;28;20046;-80
2023/05/26 19:56:16;;;;;;;10.60;5.03;;;;;;;;;;10293203;28;20051;-80
2023/05/26 20:01:20;;;;;;;14.97;7.90;;;;;;;;;;10288962;28;20043;-79
2023/05/26 20:06:23;;;;;;;12.10;4.40;;;;;;;;;;10300490;28;20046;-79
2023/05/26 20:11:27;;;;;;;11.98;4.53;;;;;;;;;;10297490;28;20463;-79
2023/05/26 20:16:32;;;;;;;10.85;4.85;;;;;;;;;;10303583;28;20131;-79
2023/05/26 20:21:36;;;;;;;15.75;6.95;;;;;;;;;;10305377;28;20100;-80
2023/05/26 20:26:39;;;;;;;10.80;5.17;;;;;;;;;;10306058;28;20241;-81
2023/05/26 20:31:43;;;;;;;14.37;5.17;;;;;;;;;;10297315;28;20668;-80
2023/05/26 20:36:46;;;;;;;10.57;4.80;;;;;;;;;;10292993;28;20310;-80
2023/05/26 20:41:49;;;;;;;12.03;5.07;;;;;;;;;;10296377;28;20133;-80
2023/05/26 20:46:53;;;;;;;11.30;4.25;;;;;;;;;;10298665;28;20065;-80
2023/05/26 20:51:56;;;;;;;13.18;4.35;;;;;;;;;;10298263;28;20419;-80
2023/05/26 20:56:59;;;;;;;11.15;4.80;;;;;;;;;;10306185;28;20133;-79
2023/05/26 21:02:05;;;;;;;9.25;4.63;;;;;;;;;;10306168;28;20049;-78
2023/05/26 21:07:08;;;;;;;10.15;4.53;;;;;;;;;;10300959;28;20124;-79
2023/05/26 21:12:11;;;;;;;10.13;5.47;;;;;;;;;;10297515;28;20116;-80
2023/05/26 21:17:15;;;;;;;12.00;5.28;;;;;;;;;;10301346;28;20047;-81
2023/05/26 21:22:17;;;;;;;14.32;4.85;;;;;;;;;;10293148;28;20051;-77
2023/05/26 21:27:21;;;;;;;12.35;4.57;;;;;;;;;;10375909;28;20055;-78
2023/05/26 21:32:25;;;;;;;12.70;5.05;;;;;;;;;;10296923;28;20065;-79
2023/05/26 21:37:28;;;;;;;9.75;5.05;;;;;;;;;;10297861;28;20054;-87
2023/05/26 21:42:31;;;;;;;12.63;4.85;;;;;;;;;;10295308;28;20291;-79
2023/05/26 21:47:35;;;;;;;9.97;5.37;;;;;;;;;;10292667;28;20134;-79
2023/05/26 21:52:38;;;;;;;10.48;4.75;;;;;;;;;;10292983;28;20035;-78
2023/05/26 21:57:41;;;;;;;13.13;4.75;;;;;;;;;;10306581;28;20125;-81
2023/05/26 22:02:45;;;;;;;9.00;5.07;;;;;;;;;;10304144;28;20507;-78
2023/05/26 22:07:48;;;;;;;9.25;4.93;;;;;;;;;;10308920;28;20248;-80
2023/05/26 22:12:59;;;;;;;11.35;5.10;;;;;;;;;;10308156;28;20480;-80
2023/05/26 22:18:21;;;;;;;13.13;5.53;;;;;;;;;;10311202;28;20049;-81
2023/05/26 22:23:25;;;;;;;15.60;5.90;;;;;;;;;;10306908;28;20122;-81
2023/05/26 22:28:33;;;;;;;9.80;4.53;;;;;;;;;;10309557;28;20047;-79
2023/05/26 22:33:37;;;;;;;13.45;5.05;;;;;;;;;;10307832;28;20043;-79
2023/05/26 22:38:39;;;;;;;15.57;5.75;;;;;;;;;;10305005;28;20563;-80
2023/05/26 22:43:42;;;;;;;9.25;5.05;;;;;;;;;;10299399;28;20047;-79
2023/05/26 22:48:46;;;;;;;11.48;5.47;;;;;;;;;;10299811;28;20129;-80
2023/05/26 22:53:49;;;;;;;11.00;4.97;;;;;;;;;;10309041;28;20125;-78
2023/05/26 22:58:52;;;;;;;13.45;4.90;;;;;;;;;;10302438;28;20126;-78
2023/05/26 23:03:56;;;;;;;15.10;5.40;;;;;;;;;;10304140;28;20529;-78
2023/05/26 23:08:59;;;;;;;11.27;5.50;;;;;;;;;;10299387;28;20531;-78
2023/05/26 23:14:02;;;;;;;11.83;5.57;;;;;;;;;;10308929;28;20049;-79
2023/05/26 23:19:06;;;;;;;12.35;4.97;;;;;;;;;;10309277;28;20497;-79
2023/05/26 23:24:09;;;;;;;11.77;5.40;;;;;;;;;;10301604;28;20059;-78
2023/05/26 23:29:11;;;;;;;10.75;5.03;;;;;;;;;;10315402;28;20103;-79
2023/05/26 23:34:15;;;;;;;13.48;5.43;;;;;;;;;;10304379;28;20312;-79
2023/05/26 23:39:18;;;;;;;10.00;5.45;;;;;;;;;;10300574;28;20052;-78
2023/05/26 23:44:21;;;;;;;13.27;5.47;;;;;;;;;;10300776;28;20130;-78
2023/05/26 23:49:25;;;;;;;12.93;5.37;;;;;;;;;;10299177;28;20038;-78
2023/05/26 23:54:28;;;;;;;14.63;5.55;;;;;;;;;;10304102;28;20081;-78
2023/05/26 23:59:31;;;;;;;12.32;5.75;;;;;;;;;;10303362;28;20076;-79
